Time;durP1;ratioP1;P1;durP2;ratioP2;P2;SDS_P1;SDS_P2;PMS_P1;PMS_P2;Temp;Humidity;BMP_temperature;BMP_pressure;BME280_temperature;BME280_humidity;BME280_pressure;Samples;Min_cycle;Max_cycle;Signal;HPM_P1;HPM_P2
2022/04/15 00:02:15;;;;;;;7.25;4.15;;;19.90;93.60;;;;;;5271016;28;20119;-62
2022/04/15 00:04:45;;;;;;;7.57;4.55;;;19.90;94.00;;;;;;5270722;28;20031;-62
2022/04/15 00:07:17;;;;;;;7.70;4.82;;;19.80;94.00;;;;;;5270779;28;20036;-61
2022/04/15 00:09:48;;;;;;;8.20;4.57;;;19.80;93.90;;;;;;5270679;28;20374;-48
2022/04/15 00:12:27;;;;;;;7.93;5.18;;;19.80;93.90;;;;;;5270619;28;20111;-49
2022/04/15 00:14:58;;;;;;;7.63;4.82;;;19.70;94.40;;;;;;5270804;28;20517;-55
2022/04/15 00:17:29;;;;;;;7.10;4.45;;;19.70;94.40;;;;;;5270434;28;20036;-61
2022/04/15 00:19:59;;;;;;;6.95;4.82;;;19.60;94.60;;;;;;5270474;28;20028;-62
2022/04/15 00:22:30;;;;;;;9.70;5.13;;;19.50;94.60;;;;;;5270597;28;20476;-61
2022/04/15 00:25:01;;;;;;;7.00;4.85;;;19.50;94.70;;;;;;5270393;28;20027;-60
2022/04/15 00:27:32;;;;;;;6.90;4.75;;;19.50;95.10;;;;;;5270154;28;20064;-48
2022/04/15 00:30:05;;;;;;;8.00;4.38;;;19.40;95.10;;;;;;5269577;28;20112;-57
2022/04/15 00:32:36;;;;;;;7.45;4.30;;;19.40;95.20;;;;;;5269901;28;20113;-61
2022/04/15 00:35:07;;;;;;;8.98;5.05;;;19.30;95.30;;;;;;5270082;28;20020;-49
2022/04/15 00:37:38;;;;;;;7.40;4.63;;;19.30;95.30;;;;;;5270202;28;20356;-56
2022/04/15 00:40:10;;;;;;;7.07;4.72;;;19.30;95.80;;;;;;5270133;28;20028;-49
2022/04/15 00:42:40;;;;;;;8.82;4.97;;;19.30;96.00;;;;;;5269986;28;20020;-61
2022/04/15 00:45:11;;;;;;;8.77;4.82;;;19.20;96.20;;;;;;5270132;28;20027;-62
2022/04/15 00:47:54;;;;;;;11.68;5.45;;;19.20;96.10;;;;;;5269810;28;20036;-47
2022/04/15 00:50:33;;;;;;;8.00;5.03;;;19.20;96.10;;;;;;5269892;28;20513;-48
2022/04/15 00:53:10;;;;;;;7.78;4.95;;;19.10;96.30;;;;;;5269872;28;20604;-61
2022/04/15 00:55:42;;;;;;;9.73;5.30;;;19.10;96.40;;;;;;5269773;28;20043;-61
2022/04/15 00:58:16;;;;;;;8.07;5.05;;;19.10;96.80;;;;;;5269648;28;20102;-61
2022/04/15 01:00:47;;;;;;;8.52;5.35;;;19.00;96.10;;;;;;5269751;28;20031;-48
2022/04/15 01:03:20;;;;;;;8.02;4.88;;;19.00;96.60;;;;;;5269679;28;20024;-62
2022/04/15 01:05:55;;;;;;;10.25;5.28;;;18.90;97.00;;;;;;5269436;28;20024;-61
2022/04/15 01:08:30;;;;;;;9.48;5.10;;;18.90;96.70;;;;;;5269570;28;20042;-50
2022/04/15 01:11:03;;;;;;;7.97;5.07;;;18.90;96.80;;;;;;5269601;28;20375;-62
2022/04/15 01:13:36;;;;;;;8.75;5.15;;;18.90;96.90;;;;;;5269515;28;20020;-61
2022/04/15 01:16:08;;;;;;;8.35;5.13;;;18.80;97.00;;;;;;5269389;28;20043;-51
2022/04/15 01:18:39;;;;;;;8.77;5.18;;;18.80;96.80;;;;;;5269397;28;20459;-49
2022/04/15 01:21:12;;;;;;;8.48;5.03;;;18.80;97.00;;;;;;5269468;28;20333;-47
2022/04/15 01:23:43;;;;;;;7.40;5.00;;;18.70;97.00;;;;;;5269333;28;20127;-61
2022/04/15 01:26:17;;;;;;;7.05;4.78;;;18.70;97.50;;;;;;5269172;28;20122;-61
2022/04/15 01:28:48;;;;;;;8.55;4.95;;;18.70;97.50;;;;;;5269079;28;20032;-61
2022/04/15 01:31:20;;;;;;;9.63;5.13;;;18.70;97.20;;;;;;5269044;28;20027;-48
2022/04/15 01:33:50;;;;;;;9.18;5.40;;;18.70;97.60;;;;;;5269477;28;20111;-49
2022/04/15 01:36:21;;;;;;;8.13;4.78;;;18.60;97.50;;;;;;5269467;28;20104;-62
2022/04/15 01:38:56;;;;;;;9.18;5.18;;;18.60;97.50;;;;;;5269235;28;20498;-47
2022/04/15 01:41:26;;;;;;;8.90;5.10;;;18.60;97.90;;;;;;5269066;28;20024;-53
2022/04/15 01:43:57;;;;;;;7.90;5.20;;;18.60;97.50;;;;;;5269338;28;20157;-61
2022/04/15 01:46:28;;;;;;;7.43;4.50;;;18.60;97.80;;;;;;5268965;28;20428;-61
2022/04/15 01:48:59;;;;;;;10.05;5.13;;;18.60;98.10;;;;;;5269009;28;20388;-48
2022/04/15 01:51:34;;;;;;;8.70;5.15;;;18.50;98.00;;;;;;5268993;28;20463;-48
2022/04/15 01:54:05;;;;;;;8.98;5.10;;;18.50;98.00;;;;;;5269153;28;20468;-48
2022/04/15 01:56:35;;;;;;;9.40;5.00;;;18.50;97.90;;;;;;5268604;28;20166;-47
2022/04/15 01:59:09;;;;;;;10.57;5.53;;;18.50;98.00;;;;;;5268900;28;20024;-54
2022/04/15 02:01:40;;;;;;;10.75;5.57;;;18.70;98.30;;;;;;5269011;28;20049;-49
2022/04/15 02:04:10;;;;;;;8.73;4.82;;;18.50;98.20;;;;;;5268844;28;20028;-48
2022/04/15 02:06:42;;;;;;;10.07;5.13;;;18.40;98.10;;;;;;5268827;28;20032;-48
2022/04/15 02:09:12;;;;;;;9.90;5.60;;;18.30;98.10;;;;;;5268739;28;20020;-49
2022/04/15 02:11:43;;;;;;;10.07;5.45;;;18.40;98.20;;;;;;5269019;28;20051;-48
2022/04/15 02:14:19;;;;;;;8.07;5.00;;;18.40;98.20;;;;;;5269080;28;20021;-61
2022/04/15 02:16:53;;;;;;;8.70;5.22;;;18.30;98.30;;;;;;5268690;28;20495;-59
2022/04/15 02:19:24;;;;;;;7.75;5.25;;;18.30;98.00;;;;;;5268691;28;20044;-62
2022/04/15 02:21:55;;;;;;;8.05;4.70;;;18.30;98.40;;;;;;5268937;28;20029;-48
2022/04/15 02:24:25;;;;;;;9.88;5.15;;;18.30;98.30;;;;;;5268820;28;20356;-49
2022/04/15 02:26:57;;;;;;;9.40;5.00;;;18.30;98.40;;;;;;5268442;28;20052;-48
2022/04/15 02:29:27;;;;;;;10.40;5.70;;;18.20;97.90;;;;;;5268670;28;20103;-48
2022/04/15 02:31:58;;;;;;;7.68;4.82;;;18.20;97.90;;;;;;5268685;28;20161;-48
2022/04/15 02:34:29;;;;;;;9.38;5.60;;;18.20;98.00;;;;;;5268806;28;20464;-48
2022/04/15 02:37:00;;;;;;;8.63;5.45;;;18.20;98.30;;;;;;5268573;28;20104;-62
2022/04/15 02:39:32;;;;;;;8.52;5.00;;;18.20;98.10;;;;;;5268472;28;20020;-62
2022/04/15 02:42:03;;;;;;;8.55;4.75;;;18.20;98.30;;;;;;5268513;28;20107;-51
2022/04/15 02:44:37;;;;;;;8.25;5.40;;;18.10;98.10;;;;;;5268419;28;20099;-48
2022/04/15 02:47:08;;;;;;;7.45;5.00;;;18.10;98.30;;;;;;5268310;28;20122;-48
2022/04/15 02:49:39;;;;;;;9.43;5.28;;;18.10;98.20;;;;;;5268447;28;20099;-59
2022/04/15 02:52:10;;;;;;;9.75;5.20;;;18.10;97.90;;;;;;5268523;28;20024;-48
2022/04/15 02:54:41;;;;;;;9.20;5.55;;;18.10;98.10;;;;;;5270624;28;20031;-48
2022/04/15 02:57:12;;;;;;;8.70;5.10;;;18.10;98.00;;;;;;5271939;28;20067;-51
2022/04/15 02:59:42;;;;;;;7.88;4.75;;;18.00;98.10;;;;;;5272160;28;20035;-50
2022/04/15 03:02:15;;;;;;;8.57;5.00;;;18.00;98.00;;;;;;5272502;28;20020;-49
2022/04/15 03:04:45;;;;;;;8.20;5.28;;;18.00;97.90;;;;;;5272222;28;20486;-62
2022/04/15 03:07:16;;;;;;;8.63;5.28;;;18.00;98.00;;;;;;5271995;28;20036;-58
2022/04/15 03:09:47;;;;;;;9.40;5.20;;;18.00;97.70;;;;;;5271976;28;20028;-62
2022/04/15 03:12:18;;;;;;;8.57;5.18;;;18.00;97.90;;;;;;5271866;28;20016;-62
2022/04/15 03:14:53;;;;;;;8.15;4.90;;;18.00;97.90;;;;;;5271937;28;20404;-63
2022/04/15 03:17:24;;;;;;;11.38;5.63;;;18.00;97.90;;;;;;5271785;28;20027;-52
2022/04/15 03:19:54;;;;;;;10.50;5.68;;;17.90;97.90;;;;;;5271739;28;20020;-48
2022/04/15 03:22:25;;;;;;;9.57;5.03;;;17.90;98.10;;;;;;5271677;28;20035;-48
2022/04/15 03:24:56;;;;;;;8.15;5.57;;;17.90;97.80;;;;;;5271858;28;20058;-49
2022/04/15 03:27:27;;;;;;;9.10;5.25;;;17.80;97.90;;;;;;5271451;28;20040;-49
2022/04/15 03:29:57;;;;;;;10.05;4.93;;;17.90;97.90;;;;;;5271559;28;20488;-48
2022/04/15 03:32:29;;;;;;;11.13;5.85;;;17.80;97.70;;;;;;5271483;28;20032;-48
2022/04/15 03:35:00;;;;;;;10.20;6.13;;;17.80;97.80;;;;;;5271557;28;20063;-49
2022/04/15 03:37:30;;;;;;;9.07;5.43;;;17.80;97.70;;;;;;5271432;28;20024;-48
2022/04/15 03:40:01;;;;;;;8.85;5.57;;;17.80;97.70;;;;;;5271476;28;20020;-62
2022/04/15 03:42:45;;;;;;;10.30;5.45;;;17.80;97.70;;;;;;5271296;28;20028;-48
2022/04/15 03:45:22;;;;;;;11.00;5.78;;;17.80;97.80;;;;;;5271404;28;20402;-54
2022/04/15 03:47:54;;;;;;;11.15;5.50;;;17.80;97.70;;;;;;5271206;28;20042;-62
2022/04/15 03:50:25;;;;;;;9.57;5.30;;;17.80;97.80;;;;;;5271261;28;20024;-48
2022/04/15 03:52:55;;;;;;;10.48;5.90;;;17.80;97.90;;;;;;5271108;28;20416;-49
2022/04/15 03:55:26;;;;;;;10.55;5.55;;;17.70;97.80;;;;;;5271022;28;20111;-50
2022/04/15 03:57:57;;;;;;;10.65;5.93;;;17.70;97.80;;;;;;5270626;28;20036;-50
2022/04/15 04:00:28;;;;;;;9.30;5.95;;;17.70;97.90;;;;;;5270902;28;20081;-49
2022/04/15 04:02:58;;;;;;;11.15;5.65;;;17.70;97.70;;;;;;5270869;28;20099;-49
2022/04/15 04:05:29;;;;;;;9.93;5.40;;;17.70;97.60;;;;;;5270942;28;20354;-48
2022/04/15 04:08:00;;;;;;;10.60;6.50;;;17.70;98.00;;;;;;5270901;28;20519;-63
2022/04/15 04:10:32;;;;;;;11.23;6.22;;;17.70;97.50;;;;;;5270745;28;20032;-62
2022/04/15 04:13:03;;;;;;;10.40;5.88;;;17.70;97.60;;;;;;5270627;28;20024;-49
2022/04/15 04:15:34;;;;;;;10.70;6.20;;;17.70;97.50;;;;;;5270615;28;20030;-49
2022/04/15 04:18:05;;;;;;;11.05;6.03;;;17.70;97.70;;;;;;5270615;28;20367;-49
2022/04/15 04:20:35;;;;;;;9.93;5.32;;;17.70;97.50;;;;;;5270493;28;20020;-62
2022/04/15 04:23:06;;;;;;;10.25;5.97;;;17.70;97.80;;;;;;5270561;28;20115;-63
2022/04/15 04:25:37;;;;;;;9.38;5.68;;;17.70;97.70;;;;;;5270403;28;20032;-62
2022/04/15 04:28:08;;;;;;;10.68;6.25;;;17.70;97.70;;;;;;5270189;28;20038;-55
2022/04/15 04:30:39;;;;;;;12.05;6.18;;;17.70;97.80;;;;;;5270395;28;20031;-50
2022/04/15 04:33:10;;;;;;;9.05;5.78;;;17.70;97.70;;;;;;5270416;28;20463;-48
2022/04/15 04:35:41;;;;;;;9.98;5.68;;;17.70;97.80;;;;;;5270296;28;20031;-48
2022/04/15 04:38:11;;;;;;;10.48;5.72;;;17.60;97.70;;;;;;5270182;28;20013;-47
2022/04/15 04:40:43;;;;;;;11.63;6.03;;;17.60;97.50;;;;;;5270166;28;20524;-48
2022/04/15 04:43:14;;;;;;;9.88;5.55;;;17.60;97.70;;;;;;5270091;28;20023;-63
2022/04/15 04:45:45;;;;;;;10.07;6.22;;;17.60;97.70;;;;;;5264580;28;20028;-64
2022/04/15 04:48:16;;;;;;;11.25;6.03;;;17.60;97.50;;;;;;5248965;28;20064;-59
2022/04/15 04:50:47;;;;;;;10.88;5.93;;;17.60;97.40;;;;;;5248951;28;20049;-50
2022/04/15 04:53:18;;;;;;;10.90;5.95;;;17.60;97.50;;;;;;5248939;28;20111;-48
2022/04/15 04:55:49;;;;;;;12.93;6.05;;;17.60;97.40;;;;;;5248821;28;20672;-63
2022/04/15 04:58:20;;;;;;;10.98;6.40;;;17.70;97.40;;;;;;5248949;28;20045;-63
2022/04/15 05:00:51;;;;;;;10.82;6.75;;;17.70;97.20;;;;;;5248820;28;20024;-52
2022/04/15 05:03:22;;;;;;;9.48;5.53;;;17.70;97.30;;;;;;5248867;28;20028;-49
2022/04/15 05:05:53;;;;;;;10.63;6.25;;;17.60;97.00;;;;;;5248704;28;20028;-50
2022/04/15 05:08:23;;;;;;;10.20;5.82;;;17.60;97.20;;;;;;5248441;28;20040;-49
2022/04/15 05:10:54;;;;;;;10.82;6.13;;;17.60;96.90;;;;;;5248654;28;20025;-64
2022/04/15 05:13:25;;;;;;;12.13;6.65;;;17.60;97.00;;;;;;5248611;28;20031;-48
2022/04/15 05:15:56;;;;;;;13.43;6.75;;;17.60;97.20;;;;;;5248576;28;20142;-48
2022/04/15 05:18:27;;;;;;;10.13;6.30;;;17.60;97.10;;;;;;5247948;28;20426;-48
2022/04/15 05:20:57;;;;;;;12.13;7.05;;;17.60;97.20;;;;;;5248601;28;20035;-49
2022/04/15 05:23:28;;;;;;;12.05;7.20;;;17.60;96.20;;;;;;5245865;28;20592;-59
2022/04/15 05:25:59;;;;;;;12.70;6.43;;;18.40;96.10;;;;;;5255201;28;20047;-58
2022/04/15 05:28:35;;;;;;;12.15;6.75;;;19.30;93.50;;;;;;5265234;28;20035;-56
2022/04/15 05:31:05;;;;;;;14.43;7.32;;;19.50;91.20;;;;;;5265238;28;20111;-56
2022/04/15 05:33:36;;;;;;;11.50;6.75;;;19.50;90.70;;;;;;5265299;28;20107;-59
2022/04/15 05:36:14;;;;;;;12.15;6.95;;;19.70;91.10;;;;;;5264572;28;20466;-53
2022/04/15 05:38:51;;;;;;;12.27;6.82;;;19.60;90.90;;;;;;5261380;28;20051;-56
2022/04/15 05:41:26;;;;;;;16.85;6.70;;;19.50;91.20;;;;;;5264141;28;20070;-56
2022/04/15 05:43:58;;;;;;;14.88;7.30;;;19.20;92.40;;;;;;5264129;28;20032;-59
2022/04/15 05:46:34;;;;;;;13.27;7.03;;;18.80;93.10;;;;;;5264092;28;20090;-59
2022/04/15 05:49:14;;;;;;;14.90;6.95;;;18.60;95.00;;;;;;5148985;28;20037;-61
2022/04/15 05:51:45;;;;;;;17.60;7.45;;;18.60;95.10;;;;;;5201725;28;20061;-59
2022/04/15 05:54:16;;;;;;;14.23;7.68;;;18.60;95.10;;;;;;5202181;28;20104;-57
2022/04/15 05:56:47;;;;;;;17.13;7.60;;;19.00;94.70;;;;;;5201991;28;20053;-60
2022/04/15 05:59:21;;;;;;;14.00;7.60;;;18.80;94.60;;;;;;5178479;28;20046;-59
2022/04/15 06:01:52;;;;;;;12.90;7.32;;;18.70;95.50;;;;;;5202230;28;20108;-59
2022/04/15 06:04:23;;;;;;;14.10;7.70;;;19.00;94.90;;;;;;5202419;28;20065;-55
2022/04/15 06:06:54;;;;;;;14.13;7.45;;;18.90;95.10;;;;;;5201993;28;20048;-60
2022/04/15 06:09:25;;;;;;;14.40;7.22;;;18.80;95.90;;;;;;5200841;28;20071;-60
2022/04/15 06:11:56;;;;;;;14.43;7.13;;;18.70;96.30;;;;;;5201979;28;20025;-53
2022/04/15 06:14:33;;;;;;;13.32;7.60;;;18.60;97.20;;;;;;5202452;28;20032;-60
2022/04/15 06:17:04;;;;;;;15.73;7.93;;;18.60;97.10;;;;;;5201963;28;20034;-59
2022/04/15 06:19:35;;;;;;;13.85;7.72;;;18.60;97.00;;;;;;5202494;28;20041;-60
2022/04/15 06:22:06;;;;;;;19.33;8.45;;;18.60;97.50;;;;;;5201412;28;20512;-59
2022/04/15 06:24:37;;;;;;;13.63;8.15;;;18.60;97.20;;;;;;5201960;28;20095;-60
2022/04/15 06:27:07;;;;;;;19.52;10.40;;;19.10;96.30;;;;;;5201666;28;20109;-58
2022/04/15 06:29:38;;;;;;;17.20;9.05;;;18.50;93.10;;;;;;5204309;28;20366;-60
2022/04/15 06:32:09;;;;;;;17.05;9.18;;;19.00;94.10;;;;;;5205876;28;20005;-59
2022/04/15 06:34:40;;;;;;;15.60;8.85;;;18.80;93.80;;;;;;5205805;28;20372;-59
2022/04/15 06:37:10;;;;;;;13.27;7.45;;;18.90;94.80;;;;;;5206311;28;20017;-59
2022/04/15 06:39:42;;;;;;;21.27;10.80;;;18.80;94.80;;;;;;5205675;28;20025;-62
2022/04/15 06:42:13;;;;;;;17.80;8.85;;;18.30;92.10;;;;;;5206346;28;20429;-62
2022/04/15 06:44:44;;;;;;;18.70;8.38;;;18.20;96.10;;;;;;5204401;28;20096;-62
2022/04/15 06:47:15;;;;;;;16.75;8.93;;;18.20;96.60;;;;;;5206626;28;20452;-62
2022/04/15 06:49:47;;;;;;;19.95;8.98;;;18.30;96.80;;;;;;5206042;28;20037;-62
2022/04/15 06:52:18;;;;;;;18.63;8.48;;;18.20;96.90;;;;;;5206134;28;20009;-63
2022/04/15 06:54:49;;;;;;;16.80;8.40;;;18.30;97.00;;;;;;5205719;28;20060;-60
2022/04/15 06:57:20;;;;;;;16.63;8.43;;;18.20;97.20;;;;;;5205579;28;20123;-55
2022/04/15 06:59:50;;;;;;;15.05;8.68;;;18.20;97.40;;;;;;5205931;28;20877;-62
2022/04/15 07:02:21;;;;;;;15.75;8.25;;;18.20;97.70;;;;;;5205881;28;20022;-61
2022/04/15 07:04:52;;;;;;;15.25;8.65;;;18.20;97.70;;;;;;5205404;28;20032;-51
2022/04/15 07:07:23;;;;;;;16.42;8.25;;;18.30;97.80;;;;;;5205663;28;20041;-62
2022/04/15 07:09:54;;;;;;;16.42;7.82;;;18.20;98.10;;;;;;5205358;28;20025;-55
2022/04/15 07:12:25;;;;;;;14.35;7.45;;;18.20;98.10;;;;;;5205558;28;20025;-49
2022/04/15 07:14:57;;;;;;;17.73;8.05;;;19.30;97.20;;;;;;5205293;28;20053;-48
2022/04/15 07:17:28;;;;;;;14.70;8.00;;;19.00;95.10;;;;;;5205275;28;20025;-56
2022/04/15 07:19:59;;;;;;;12.68;7.63;;;18.90;96.40;;;;;;5205272;28;20579;-58
2022/04/15 07:22:30;;;;;;;13.43;8.00;;;18.90;96.80;;;;;;5205558;28;20029;-59
2022/04/15 07:25:00;;;;;;;13.32;7.65;;;18.80;97.50;;;;;;5204656;28;20164;-54
2022/04/15 07:27:31;;;;;;;14.98;7.72;;;18.80;96.90;;;;;;5205289;28;20516;-56
2022/04/15 07:30:03;;;;;;;14.65;7.28;;;18.90;97.40;;;;;;5204365;28;20028;-60
2022/04/15 07:32:33;;;;;;;11.57;6.75;;;18.90;96.80;;;;;;5205240;28;20435;-55
2022/04/15 07:35:05;;;;;;;12.90;6.70;;;18.90;97.20;;;;;;5204259;28;20025;-52
2022/04/15 07:37:36;;;;;;;13.98;6.95;;;19.30;95.30;;;;;;5204486;28;20061;-49
2022/04/15 07:40:07;;;;;;;11.80;6.65;;;19.00;96.20;;;;;;5204671;28;20032;-48
2022/04/15 07:42:39;;;;;;;11.65;7.00;;;19.00;96.80;;;;;;5204760;28;20017;-53
2022/04/15 07:45:10;;;;;;;13.23;6.75;;;18.70;97.80;;;;;;5202458;28;20025;-51
2022/04/15 07:47:42;;;;;;;13.35;7.07;;;18.60;98.80;;;;;;5203988;28;20082;-49
2022/04/15 07:50:12;;;;;;;13.93;7.07;;;19.00;98.40;;;;;;5204678;28;20055;-51
2022/04/15 07:52:43;;;;;;;15.38;7.72;;;19.20;98.30;;;;;;5204300;28;20071;-49
2022/04/15 07:55:14;;;;;;;12.15;7.28;;;19.20;97.40;;;;;;5204025;28;20033;-49
2022/04/15 07:57:45;;;;;;;12.57;6.82;;;19.00;97.50;;;;;;5203587;28;20554;-59
2022/04/15 08:00:16;;;;;;;11.68;6.35;;;19.40;97.70;;;;;;5204234;28;20052;-59
2022/04/15 08:02:47;;;;;;;12.23;6.35;;;19.20;98.90;;;;;;5204376;28;20026;-59
2022/04/15 08:05:18;;;;;;;14.43;6.60;;;19.20;98.30;;;;;;5204732;28;20025;-58
2022/04/15 08:07:50;;;;;;;10.52;6.35;;;18.90;99.90;;;;;;5203620;28;20090;-60
2022/04/15 08:10:23;;;;;;;13.05;7.22;;;19.00;99.90;;;;;;5204106;28;20037;-61
2022/04/15 08:12:54;;;;;;;11.15;6.53;;;18.80;99.90;;;;;;5204170;28;20934;-53
2022/04/15 08:15:25;;;;;;;10.82;6.18;;;19.60;99.90;;;;;;5203991;28;20033;-60
2022/04/15 08:17:56;;;;;;;13.40;6.25;;;19.00;99.90;;;;;;5203659;28;20032;-59
2022/04/15 08:20:27;;;;;;;13.02;6.30;;;19.30;99.90;;;;;;5205664;28;20116;-64
2022/04/15 08:22:58;;;;;;;13.18;6.13;;;19.00;99.90;;;;;;5203540;28;20029;-52
2022/04/15 08:25:29;;;;;;;14.10;6.03;;;19.80;99.90;;;;;;5203759;28;20481;-54
2022/04/15 08:28:00;;;;;;;13.02;6.50;;;19.80;99.90;;;;;;5203292;28;20060;-54
2022/04/15 08:30:33;;;;;;;17.33;7.18;;;19.30;99.90;;;;;;5203983;28;20025;-57
2022/04/15 08:33:07;;;;;;;14.00;6.90;;;18.90;99.90;;;;;;5203626;28;20436;-62
2022/04/15 08:35:41;;;;;;;13.10;6.68;;;18.90;99.90;;;;;;5203804;28;20429;-59
2022/04/15 08:38:13;;;;;;;22.70;12.30;;;18.90;99.90;;;;;;5201807;28;20071;-56
2022/04/15 08:40:48;;;;;;;28.30;15.07;;;19.10;99.90;;;;;;5203457;28;20105;-51
2022/04/15 08:43:19;;;;;;;37.88;22.15;;;19.00;99.90;;;;;;5203542;28;20030;-53
2022/04/15 08:45:50;;;;;;;75.20;42.40;;;18.80;99.90;;;;;;5202075;28;20092;-62
2022/04/15 08:48:23;;;;;;;67.10;38.13;;;18.70;99.90;;;;;;5203354;28;20034;-57
2022/04/15 08:50:54;;;;;;;63.30;38.45;;;18.70;99.90;;;;;;5202733;28;20030;-52
2022/04/15 08:53:24;;;;;;;75.28;39.70;;;18.80;99.90;;;;;;5203351;28;20036;-49
2022/04/15 08:55:57;;;;;;;62.33;39.65;;;18.70;99.90;;;;;;5202964;28;20037;-62
2022/04/15 08:58:27;;;;;;;63.42;38.15;;;18.80;99.90;;;;;;5202717;28;20029;-54
2022/04/15 09:00:58;;;;;;;60.17;38.75;;;18.80;99.90;;;;;;5203085;28;20469;-56
2022/04/15 09:03:29;;;;;;;61.28;37.92;;;18.70;99.90;;;;;;5202976;28;20031;-54
2022/04/15 09:06:00;;;;;;;61.70;38.03;;;18.70;99.90;;;;;;5203279;28;20489;-60
2022/04/15 09:08:31;;;;;;;64.40;39.55;;;18.80;99.90;;;;;;5201997;28;20037;-61
2022/04/15 09:11:03;;;;;;;60.90;39.63;;;18.70;99.90;;;;;;5202670;28;20031;-63
2022/04/15 09:13:35;;;;;;;63.63;38.70;;;19.20;99.90;;;;;;5202753;28;20155;-62
2022/04/15 09:16:07;;;;;;;62.67;38.53;;;19.50;99.90;;;;;;5202710;28;20033;-60
2022/04/15 09:18:38;;;;;;;68.05;41.15;;;19.60;99.90;;;;;;5202786;28;20400;-56
2022/04/15 09:21:24;;;;;;;65.93;39.28;;;19.50;99.90;;;;;;5203407;28;20087;-59
2022/04/15 09:23:56;;;;;;;63.97;36.65;;;19.80;99.90;;;;;;5202618;28;20063;-59
2022/04/15 09:26:27;;;;;;;60.33;34.05;;;19.90;99.90;;;;;;5202802;28;20393;-56
2022/04/15 09:28:58;;;;;;;65.93;36.30;;;19.70;99.90;;;;;;5202260;28;20619;-58
2022/04/15 09:31:29;;;;;;;50.40;33.00;;;19.50;99.90;;;;;;5203014;28;20017;-57
2022/04/15 09:34:02;;;;;;;52.33;33.42;;;19.70;99.90;;;;;;5202351;28;20048;-58
2022/04/15 09:36:38;;;;;;;54.25;32.78;;;19.70;99.90;;;;;;5141244;28;20042;-63
2022/04/15 09:39:11;;;;;;;60.40;31.27;;;19.10;99.90;;;;;;5202822;28;20029;-63
2022/04/15 09:41:55;;;;;;;60.00;33.50;;;18.60;99.90;;;;;;5202628;28;20473;-64
2022/04/15 09:44:32;;;;;;;57.88;33.05;;;18.40;99.90;;;;;;5202988;28;20087;-64
2022/04/15 09:47:04;;;;;;;52.15;31.77;;;18.20;99.90;;;;;;5202028;28;20030;-64
2022/04/15 09:49:35;;;;;;;59.47;31.80;;;18.20;99.90;;;;;;5202341;28;20036;-63
2022/04/15 09:52:07;;;;;;;47.17;30.00;;;18.20;99.90;;;;;;5201862;28;20478;-64
2022/04/15 09:54:42;;;;;;;50.20;30.02;;;18.20;99.90;;;;;;5202168;28;20024;-65
2022/04/15 09:57:14;;;;;;;44.70;30.83;;;18.20;99.90;;;;;;5202363;28;20136;-64
2022/04/15 09:59:49;;;;;;;48.20;30.92;;;18.20;99.90;;;;;;5202108;28;20025;-65
2022/04/15 10:02:22;;;;;;;48.10;29.73;;;18.20;99.90;;;;;;5202433;28;20037;-63
2022/04/15 10:04:53;;;;;;;46.25;29.63;;;18.20;99.90;;;;;;5206439;28;20034;-63
2022/04/15 10:07:25;;;;;;;47.55;29.58;;;18.20;99.90;;;;;;5206980;28;20052;-64
2022/04/15 10:09:57;;;;;;;47.85;30.02;;;18.20;99.90;;;;;;5206282;28;20429;-64
2022/04/15 10:12:29;;;;;;;46.42;27.15;;;18.20;99.90;;;;;;5206756;28;20469;-63
2022/04/15 10:15:02;;;;;;;45.35;26.88;;;19.10;99.90;;;;;;5205941;28;20466;-65
2022/04/15 10:17:34;;;;;;;50.13;27.90;;;19.30;99.90;;;;;;5205988;28;20033;-64
2022/04/15 10:20:07;;;;;;;45.65;27.13;;;18.60;99.90;;;;;;5206108;28;20029;-64
2022/04/15 10:22:40;;;;;;;47.95;28.17;;;18.40;99.90;;;;;;5206141;28;20082;-64
2022/04/15 10:25:11;;;;;;;42.83;27.55;;;18.30;99.90;;;;;;5204281;28;20029;-62
2022/04/15 10:27:41;;;;;;;46.03;25.55;;;18.20;99.90;;;;;;5205933;28;20401;-65
2022/04/15 10:30:18;;;;;;;47.28;26.65;;;18.20;99.90;;;;;;5205522;28;20025;-64
2022/04/15 10:32:55;;;;;;;39.63;25.17;;;18.20;99.90;;;;;;5205959;28;20041;-65
2022/04/15 10:35:27;;;;;;;44.35;24.90;;;18.20;99.90;;;;;;5205827;28;20032;-61
2022/04/15 10:38:03;;;;;;;40.40;25.33;;;18.20;99.90;;;;;;5205803;28;20033;-65
2022/04/15 10:40:34;;;;;;;39.97;25.73;;;18.20;99.90;;;;;;5147311;28;20513;-65
2022/04/15 10:43:18;;;;;;;39.70;24.30;;;18.20;99.90;;;;;;5205870;28;20037;-66
2022/04/15 10:45:51;;;;;;;39.50;24.27;;;18.20;99.90;;;;;;5205646;28;20029;-66
2022/04/15 10:48:29;;;;;;;38.50;24.50;;;18.10;99.90;;;;;;5180254;28;20832;-65
2022/04/15 10:51:24;;;;;;;35.20;22.83;;;18.20;99.90;;;;;;5205435;28;20029;-65
2022/04/15 10:53:56;;;;;;;40.80;23.50;;;18.20;99.90;;;;;;5180195;28;20037;-65
2022/04/15 10:56:27;;;;;;;38.25;22.95;;;18.10;99.90;;;;;;5205363;28;20556;-66
2022/04/15 11:02:01;;;;;;;38.75;23.60;;;18.10;99.90;;;;;;5205813;28;21355;-63
2022/04/15 11:04:36;;;;;;;39.25;22.52;;;18.20;99.90;;;;;;5204575;28;20071;-64
2022/04/15 11:07:28;;;;;;;35.70;21.33;;;18.20;99.90;;;;;;5205389;28;20507;-65
2022/04/15 11:09:59;;;;;;;37.08;22.55;;;18.10;99.90;;;;;;5205551;28;20539;-64
2022/04/15 11:12:42;;;;;;;36.88;21.38;;;18.20;99.90;;;;;;5205455;28;20026;-65
2022/04/15 11:15:51;;;;;;;37.97;21.90;;;18.20;99.90;;;;;;5205056;28;20034;-65
2022/04/15 11:18:23;;;;;;;36.20;22.43;;;18.20;99.90;;;;;;5205428;28;20650;-65
2022/04/15 11:20:54;;;;;;;35.42;20.77;;;18.20;99.90;;;;;;5204846;28;20099;-66
2022/04/15 11:23:28;;;;;;;36.08;20.08;;;18.20;99.90;;;;;;5205318;28;21228;-64
2022/04/15 11:26:00;;;;;;;33.47;20.52;;;18.20;99.90;;;;;;5205052;28;20075;-66
2022/04/15 11:28:36;;;;;;;36.88;21.23;;;18.20;99.90;;;;;;5205549;28;20032;-66
2022/04/15 11:31:30;;;;;;;30.65;19.10;;;18.20;99.90;;;;;;5205111;28;20033;-65
2022/04/15 11:34:10;;;;;;;31.48;19.45;;;18.20;99.90;;;;;;5204859;28;20083;-65
2022/04/15 11:36:43;;;;;;;28.65;17.60;;;18.30;99.90;;;;;;5202695;28;20034;-65
2022/04/15 11:39:17;;;;;;;32.17;19.10;;;18.10;99.90;;;;;;5205283;28;20564;-66
2022/04/15 11:41:59;;;;;;;31.52;17.83;;;18.00;99.90;;;;;;5204824;28;20408;-66
2022/04/15 11:44:31;;;;;;;25.23;16.30;;;18.00;99.90;;;;;;5205439;28;20361;-65
2022/04/15 11:47:21;;;;;;;30.15;17.90;;;18.00;99.90;;;;;;5204324;28;20424;-65
2022/04/15 11:49:52;;;;;;;25.50;16.73;;;18.00;99.90;;;;;;5200483;28;20474;-65
2022/04/15 11:52:27;;;;;;;24.98;15.82;;;18.00;99.90;;;;;;5199043;28;20120;-65
2022/04/15 11:54:58;;;;;;;24.40;13.85;;;18.10;99.90;;;;;;5202538;28;20116;-66
2022/04/15 11:57:31;;;;;;;26.85;14.65;;;18.10;99.90;;;;;;5204168;28;20057;-66
2022/04/15 12:00:03;;;;;;;21.70;13.35;;;18.10;99.90;;;;;;5204613;28;20029;-65
2022/04/15 12:02:34;;;;;;;24.85;13.60;;;18.00;99.90;;;;;;5204865;28;20509;-66
2022/04/15 12:05:05;;;;;;;23.17;13.13;;;18.00;99.90;;;;;;5204174;28;20021;-65
2022/04/15 12:07:36;;;;;;;18.70;11.98;;;18.00;99.90;;;;;;5199728;28;20037;-65
2022/04/15 12:10:07;;;;;;;21.85;12.45;;;18.00;99.90;;;;;;5203525;28;20021;-65
2022/04/15 12:12:40;;;;;;;19.10;10.90;;;17.90;99.90;;;;;;5204211;28;20357;-65
2022/04/15 12:15:12;;;;;;;18.13;11.38;;;18.00;99.90;;;;;;5199347;28;20102;-66
2022/04/15 12:17:43;;;;;;;27.73;12.18;;;17.90;99.90;;;;;;5202051;28;20025;-66
2022/04/15 12:20:16;;;;;;;20.02;11.65;;;18.00;99.90;;;;;;5204019;28;20041;-65
2022/04/15 12:22:46;;;;;;;22.17;10.48;;;17.90;99.90;;;;;;5203481;28;20029;-65
2022/04/15 12:25:19;;;;;;;15.18;9.93;;;17.90;99.90;;;;;;5204147;28;20037;-65
2022/04/15 12:27:53;;;;;;;16.42;9.48;;;17.90;99.90;;;;;;5200845;28;20107;-65
2022/04/15 12:30:43;;;;;;;17.80;9.88;;;17.90;99.90;;;;;;5204042;28;20508;-64
2022/04/15 12:33:14;;;;;;;17.85;10.82;;;17.90;99.90;;;;;;5199614;28;20018;-65
2022/04/15 12:36:02;;;;;;;16.67;9.95;;;17.90;99.90;;;;;;5202807;28;20535;-63
2022/04/15 12:38:59;;;;;;;15.50;9.55;;;17.90;99.90;;;;;;5203889;28;20112;-64
2022/04/15 12:41:45;;;;;;;16.83;9.90;;;17.90;99.90;;;;;;5203732;28;20053;-65
2022/04/15 12:44:27;;;;;;;18.65;9.80;;;17.90;99.90;;;;;;5200927;28;20022;-64
2022/04/15 12:47:00;;;;;;;15.27;7.97;;;17.90;99.90;;;;;;5202001;28;20038;-64
2022/04/15 12:49:33;;;;;;;15.27;8.63;;;17.90;99.90;;;;;;5203216;28;20033;-64
2022/04/15 12:52:22;;;;;;;15.02;8.77;;;17.90;99.90;;;;;;5202010;28;20889;-64
2022/04/15 12:55:06;;;;;;;12.82;6.38;;;18.00;99.90;;;;;;5202775;28;20041;-64
2022/04/15 12:57:41;;;;;;;12.38;4.95;;;18.10;99.90;;;;;;5200538;28;20053;-64
2022/04/15 13:00:12;;;;;;;7.60;5.10;;;18.20;99.90;;;;;;5201905;28;20504;-65
2022/04/15 13:02:43;;;;;;;9.18;4.22;;;18.20;99.90;;;;;;5202724;28;20071;-64
2022/04/15 13:05:14;;;;;;;8.27;4.07;;;18.20;99.90;;;;;;5203161;28;20014;-65
2022/04/15 13:07:50;;;;;;;6.72;3.50;;;18.20;99.90;;;;;;5202382;28;20045;-64